Time;durP1;ratioP1;P1;durP2;ratioP2;P2;SDS_P1;SDS_P2;PMS_P1;PMS_P2;Temp;Humidity;BMP_temperature;BMP_pressure;BME280_temperature;BME280_humidity;BME280_pressure;Samples;Min_cycle;Max_cycle;Signal;HPM_P1;HPM_P2
2024/01/28 00:00:15;;;;;;;36.45;15.57;;;0.70;99.90;;;;;;5048034;28;20605;-86
2024/01/28 00:02:41;;;;;;;43.63;16.42;;;-0.30;99.90;;;;;;5021293;28;20047;-86
2024/01/28 00:05:07;;;;;;;43.08;16.00;;;-0.30;99.90;;;;;;5048517;28;20115;-85
2024/01/28 00:07:33;;;;;;;40.40;16.40;;;-0.20;99.90;;;;;;5053431;28;20138;-86
2024/01/28 00:10:00;;;;;;;34.92;14.20;;;-0.20;99.90;;;;;;5029863;28;20126;-86
2024/01/28 00:12:26;;;;;;;45.90;17.55;;;-0.10;99.90;;;;;;5036014;28;20127;-85
2024/01/28 00:14:52;;;;;;;42.90;17.13;;;-0.20;99.90;;;;;;5036806;28;20109;-86
2024/01/28 00:17:18;;;;;;;39.08;15.77;;;-0.20;99.90;;;;;;5045391;28;20040;-86
2024/01/28 00:19:46;;;;;;;41.40;19.88;;;-0.20;99.90;;;;;;5040210;28;20518;-86
2024/01/28 00:22:12;;;;;;;42.95;17.17;;;-0.20;99.90;;;;;;5038870;28;20040;-85
2024/01/28 00:24:38;;;;;;;46.92;17.55;;;-0.30;99.90;;;;;;5037851;28;20127;-86
2024/01/28 00:27:04;;;;;;;45.83;16.95;;;-0.40;99.90;;;;;;5050541;28;20140;-85
2024/01/28 00:29:31;;;;;;;36.47;16.85;;;-0.20;99.90;;;;;;5036182;28;20143;-86
2024/01/28 00:31:59;;;;;;;32.60;14.85;;;-0.20;99.90;;;;;;5032499;28;20160;-85
2024/01/28 00:34:25;;;;;;;48.70;17.75;;;-0.30;99.90;;;;;;5054446;28;20059;-84
2024/01/28 00:36:51;;;;;;;42.97;15.98;;;-0.30;99.90;;;;;;5046993;28;20093;-86
2024/01/28 00:39:17;;;;;;;41.42;16.27;;;-0.40;99.90;;;;;;5029215;28;20077;-85
2024/01/28 00:41:43;;;;;;;38.42;17.02;;;-0.30;99.90;;;;;;5058284;28;20084;-86
2024/01/28 00:44:10;;;;;;;32.58;13.75;;;-0.40;99.90;;;;;;5028654;28;20033;-86
2024/01/28 00:46:36;;;;;;;37.45;16.10;;;-0.30;99.90;;;;;;5021616;28;20052;-86
2024/01/28 00:49:03;;;;;;;37.13;15.95;;;-0.40;99.90;;;;;;5055244;28;20139;-86
2024/01/28 00:51:31;;;;;;;37.17;15.32;;;-0.30;99.90;;;;;;5048201;28;20052;-85
2024/01/28 00:53:57;;;;;;;40.17;18.20;;;-0.30;99.90;;;;;;5036476;28;20580;-86
2024/01/28 00:56:24;;;;;;;43.22;17.00;;;-0.50;99.90;;;;;;5033658;28;20049;-85
2024/01/28 00:58:50;;;;;;;41.08;18.42;;;-0.30;99.90;;;;;;5025532;28;20831;-87
2024/01/28 01:01:16;;;;;;;35.88;18.08;;;-0.40;99.90;;;;;;5020614;28;20051;-84
2024/01/28 01:03:42;;;;;;;39.85;18.70;;;-0.40;99.90;;;;;;5039501;28;20064;-85
2024/01/28 01:06:08;;;;;;;41.50;18.38;;;-0.40;99.90;;;;;;5039877;28;20052;-83
2024/01/28 01:08:34;;;;;;;40.35;18.77;;;-0.50;99.90;;;;;;5026238;28;20048;-83
2024/01/28 01:11:03;;;;;;;43.38;18.98;;;-0.40;99.90;;;;;;5025547;28;20037;-82
2024/01/28 01:13:32;;;;;;;56.50;20.05;;;-0.50;99.90;;;;;;5043108;28;20241;-84
2024/01/28 01:15:59;;;;;;;50.10;21.45;;;0.90;99.90;;;;;;5026249;28;20429;-84
2024/01/28 01:18:25;;;;;;;46.47;18.95;;;-0.10;99.90;;;;;;5029237;28;20095;-84
2024/01/28 01:20:53;;;;;;;45.97;18.17;;;-0.30;99.90;;;;;;5032114;28;20147;-85
2024/01/28 01:23:19;;;;;;;47.63;23.02;;;0.00;99.90;;;;;;5044582;28;20702;-83
2024/01/28 01:25:45;;;;;;;41.22;17.13;;;1.50;99.90;;;;;;5044429;28;20043;-85
2024/01/28 01:28:11;;;;;;;49.55;18.98;;;0.30;99.90;;;;;;5029390;28;20084;-85
2024/01/28 01:30:39;;;;;;;49.78;19.88;;;-0.60;99.90;;;;;;5043855;28;20040;-83
2024/01/28 01:33:05;;;;;;;52.42;20.85;;;-0.20;99.90;;;;;;5043209;28;20053;-84
2024/01/28 01:35:31;;;;;;;47.28;18.67;;;-0.50;99.90;;;;;;5043856;28;20186;-84
2024/01/28 01:37:56;;;;;;;51.25;20.63;;;0.60;99.90;;;;;;5044061;28;20766;-85
2024/01/28 01:40:22;;;;;;;36.63;19.77;;;-0.50;99.90;;;;;;5030656;28;20044;-86
2024/01/28 01:42:48;;;;;;;45.17;19.55;;;-0.10;99.90;;;;;;5023019;28;20704;-85
2024/01/28 01:45:15;;;;;;;39.25;19.38;;;-0.50;99.90;;;;;;5049044;28;20102;-86
2024/01/28 01:47:42;;;;;;;38.58;19.10;;;-0.30;99.90;;;;;;5031450;28;20036;-85
2024/01/28 01:50:10;;;;;;;54.40;21.85;;;0.80;99.90;;;;;;5047781;28;20045;-85
2024/01/28 01:52:39;;;;;;;51.70;22.13;;;-0.30;99.90;;;;;;5040917;28;20052;-85
2024/01/28 01:55:07;;;;;;;46.13;20.67;;;0.10;99.90;;;;;;5022955;28;20076;-86
2024/01/28 01:57:33;;;;;;;49.03;22.42;;;-0.20;99.90;;;;;;5039663;28;20850;-85
2024/01/28 01:59:59;;;;;;;43.45;20.15;;;0.10;99.90;;;;;;5026125;28;20045;-85
2024/01/28 02:02:26;;;;;;;48.05;23.35;;;-0.10;99.90;;;;;;5025909;28;20041;-84
2024/01/28 02:04:53;;;;;;;43.47;21.67;;;-0.10;99.90;;;;;;5041670;28;20044;-84
2024/01/28 02:07:19;;;;;;;51.60;23.15;;;0.60;99.90;;;;;;5026691;28;20045;-84
2024/01/28 02:09:44;;;;;;;50.80;22.92;;;0.30;99.90;;;;;;5029545;28;20671;-85
2024/01/28 02:12:10;;;;;;;54.58;24.80;;;0.00;99.90;;;;;;5031979;28;20048;-84
2024/01/28 02:14:36;;;;;;;59.25;28.13;;;-0.10;99.90;;;;;;5045929;28;20056;-84
2024/01/28 02:17:02;;;;;;;52.13;26.40;;;0.40;99.90;;;;;;5027356;28;20169;-86
2024/01/28 02:19:28;;;;;;;49.78;24.27;;;-0.10;99.90;;;;;;5044472;28;20048;-82
2024/01/28 02:21:54;;;;;;;56.40;26.05;;;-0.10;99.90;;;;;;5052669;28;20088;-84
2024/01/28 02:24:20;;;;;;;52.25;23.80;;;0.00;99.90;;;;;;5031436;28;20223;-84
2024/01/28 02:26:46;;;;;;;47.42;23.90;;;0.00;99.90;;;;;;5046615;28;20040;-85
2024/01/28 02:29:11;;;;;;;51.22;24.10;;;0.10;99.90;;;;;;5046572;28;20633;-85
2024/01/28 02:31:37;;;;;;;46.35;22.85;;;0.10;99.90;;;;;;5028842;28;20064;-85
2024/01/28 02:34:04;;;;;;;59.88;28.13;;;0.30;99.90;;;;;;5024234;28;20087;-83
2024/01/28 02:36:32;;;;;;;51.67;24.50;;;0.40;99.90;;;;;;5026519;28;20048;-85
2024/01/28 02:38:58;;;;;;;54.67;26.40;;;0.00;99.90;;;;;;5040888;28;20036;-85
2024/01/28 02:41:25;;;;;;;48.85;25.75;;;0.00;99.90;;;;;;5029683;28;20098;-84
2024/01/28 02:43:50;;;;;;;47.03;25.67;;;0.20;99.90;;;;;;5035045;28;20656;-84
2024/01/28 02:46:16;;;;;;;43.35;23.58;;;0.10;99.90;;;;;;5031985;28;20110;-84
2024/01/28 02:48:42;;;;;;;59.67;26.50;;;0.00;99.90;;;;;;5030295;28;20114;-85
2024/01/28 02:51:08;;;;;;;58.33;24.60;;;0.50;99.90;;;;;;5025515;28;20037;-84
2024/01/28 02:53:33;;;;;;;54.00;25.05;;;0.40;99.90;;;;;;5044058;28;20053;-85
2024/01/28 02:56:00;;;;;;;37.50;20.25;;;1.10;99.90;;;;;;5023827;28;20758;-84
2024/01/28 02:58:26;;;;;;;48.78;23.42;;;0.10;99.90;;;;;;5029050;28;20045;-85
2024/01/28 03:00:52;;;;;;;47.15;23.67;;;0.10;99.90;;;;;;5025916;28;20276;-83
2024/01/28 03:03:18;;;;;;;44.40;21.33;;;0.60;99.90;;;;;;5046045;28;20234;-85
2024/01/28 03:05:44;;;;;;;49.55;23.45;;;0.90;99.90;;;;;;5044076;28;20037;-83
2024/01/28 03:08:11;;;;;;;40.00;22.25;;;0.20;99.90;;;;;;5031460;28;20048;-82
2024/01/28 03:10:37;;;;;;;46.08;24.60;;;0.20;99.90;;;;;;5028204;28;20076;-85
2024/01/28 03:13:03;;;;;;;50.38;25.05;;;0.40;99.90;;;;;;5043732;28;20182;-85
2024/01/28 03:15:32;;;;;;;50.35;23.55;;;0.30;99.90;;;;;;5028936;28;20045;-84
2024/01/28 03:17:58;;;;;;;44.08;21.98;;;0.00;99.90;;;;;;5048014;28;20053;-84
2024/01/28 03:20:27;;;;;;;46.83;23.92;;;0.90;99.90;;;;;;5041097;28;20634;-84
2024/01/28 03:22:53;;;;;;;50.10;23.13;;;0.70;99.90;;;;;;5041588;28;20045;-83
2024/01/28 03:25:18;;;;;;;45.85;22.30;;;0.30;99.90;;;;;;5039121;28;20037;-85
2024/01/28 03:27:44;;;;;;;43.38;18.52;;;0.80;99.90;;;;;;5023620;28;20061;-81
2024/01/28 03:30:10;;;;;;;43.25;20.42;;;0.30;99.90;;;;;;5024307;28;20045;-83
2024/01/28 03:32:36;;;;;;;43.85;20.20;;;0.30;99.90;;;;;;5020437;28;20055;-81
2024/01/28 03:35:03;;;;;;;44.30;19.20;;;0.40;99.90;;;;;;5041073;28;20044;-85
2024/01/28 03:37:28;;;;;;;39.95;19.05;;;0.50;99.90;;;;;;5015782;28;20037;-85
2024/01/28 03:39:57;;;;;;;42.25;19.02;;;0.50;99.90;;;;;;5046107;28;20079;-83
2024/01/28 03:42:25;;;;;;;35.63;18.95;;;0.40;99.90;;;;;;5018952;28;20783;-86
2024/01/28 03:44:50;;;;;;;38.88;19.42;;;0.90;99.90;;;;;;5023388;28;20048;-85
2024/01/28 03:47:16;;;;;;;37.35;17.25;;;1.30;99.90;;;;;;5041769;28;20036;-86
2024/01/28 03:49:42;;;;;;;33.22;16.52;;;0.90;99.90;;;;;;5041541;28;20052;-82
2024/01/28 03:52:07;;;;;;;39.40;18.90;;;0.70;99.90;;;;;;5043721;28;20056;-83
2024/01/28 03:54:33;;;;;;;29.88;16.13;;;1.00;99.90;;;;;;5021210;28;20083;-83
2024/01/28 03:56:59;;;;;;;37.47;17.33;;;0.50;99.90;;;;;;5024364;28;20049;-82
2024/01/28 03:59:25;;;;;;;39.50;17.10;;;0.30;99.90;;;;;;5044367;28;20092;-82
2024/01/28 04:01:51;;;;;;;34.42;16.48;;;0.30;99.90;;;;;;5027620;28;20044;-84
2024/01/28 04:04:17;;;;;;;30.00;15.88;;;0.30;99.90;;;;;;5027876;28;20041;-85
2024/01/28 04:06:43;;;;;;;33.17;15.98;;;0.20;99.90;;;;;;5030103;28;20049;-82
2024/01/28 04:09:09;;;;;;;31.90;16.50;;;0.30;99.90;;;;;;5028834;28;20073;-83
2024/01/28 04:11:35;;;;;;;31.70;16.70;;;0.40;99.90;;;;;;5044218;28;20092;-85
2024/01/28 04:14:01;;;;;;;36.97;15.63;;;0.70;99.90;;;;;;5023492;28;20045;-84
2024/01/28 04:16:27;;;;;;;41.47;16.85;;;1.00;99.90;;;;;;5040665;28;20044;-85
2024/01/28 04:18:52;;;;;;;36.47;17.02;;;0.20;99.90;;;;;;5023963;28;20088;-80
2024/01/28 04:21:18;;;;;;;32.38;16.80;;;0.20;99.90;;;;;;5031795;28;20044;-84
2024/01/28 04:23:46;;;;;;;35.17;16.10;;;0.20;99.90;;;;;;5042203;28;20051;-82
2024/01/28 04:26:12;;;;;;;34.58;16.08;;;0.10;99.90;;;;;;5040320;28;20044;-83
2024/01/28 04:28:40;;;;;;;33.50;18.25;;;-0.10;99.90;;;;;;5025719;28;20059;-81
2024/01/28 04:31:07;;;;;;;32.75;16.02;;;1.70;99.90;;;;;;5031709;28;20044;-84
2024/01/28 04:33:33;;;;;;;33.08;15.63;;;1.40;99.90;;;;;;5028133;28;20051;-85
2024/01/28 04:35:58;;;;;;;32.50;17.20;;;-0.10;99.90;;;;;;5050817;28;20048;-85
2024/01/28 04:38:24;;;;;;;36.40;17.60;;;-0.10;99.90;;;;;;5037065;28;20045;-84
2024/01/28 04:40:50;;;;;;;35.50;18.42;;;0.40;99.90;;;;;;5039951;28;20134;-83
2024/01/28 04:43:16;;;;;;;31.10;16.52;;;0.10;99.90;;;;;;5040508;28;20361;-83
2024/01/28 04:45:42;;;;;;;40.50;19.13;;;-0.40;99.90;;;;;;5041601;28;20103;-82
2024/01/28 04:48:07;;;;;;;34.55;15.90;;;-0.30;99.90;;;;;;5023793;28;20045;-85
2024/01/28 04:50:33;;;;;;;37.13;17.92;;;-0.30;99.90;;;;;;5037798;28;20166;-85
2024/01/28 04:52:59;;;;;;;36.30;15.60;;;-0.40;99.90;;;;;;5034438;28;20135;-85
2024/01/28 04:55:25;;;;;;;31.30;16.25;;;-0.30;99.90;;;;;;5031836;28;20123;-85
2024/01/28 04:57:50;;;;;;;35.45;15.73;;;-0.30;99.90;;;;;;5044147;28;20049;-85
2024/01/28 05:00:17;;;;;;;41.42;16.90;;;-0.50;99.90;;;;;;5048788;28;20048;-85
2024/01/28 05:02:43;;;;;;;35.72;17.95;;;-0.50;99.90;;;;;;5026873;28;20052;-84
2024/01/28 05:05:08;;;;;;;37.70;17.23;;;0.00;99.90;;;;;;5017057;28;20047;-83
2024/01/28 05:07:34;;;;;;;34.15;15.95;;;-0.50;99.90;;;;;;5038030;28;20106;-85
2024/01/28 05:10:00;;;;;;;32.70;19.05;;;0.00;99.90;;;;;;5039266;28;20120;-84
2024/01/28 05:12:26;;;;;;;32.55;16.10;;;-0.30;99.90;;;;;;5040220;28;20044;-85
2024/01/28 05:14:52;;;;;;;30.50;17.65;;;-0.50;99.90;;;;;;5031778;28;20584;-84
2024/01/28 05:17:17;;;;;;;37.20;18.75;;;-0.10;99.90;;;;;;5021725;28;20048;-83
2024/01/28 05:19:43;;;;;;;32.28;17.60;;;0.00;99.90;;;;;;5027955;28;20409;-84
2024/01/28 05:22:09;;;;;;;33.95;16.65;;;0.60;99.90;;;;;;5042068;28;20076;-84
2024/01/28 05:24:35;;;;;;;30.88;15.77;;;0.80;99.90;;;;;;5027422;28;20041;-85
2024/01/28 05:27:02;;;;;;;32.92;15.70;;;0.00;99.90;;;;;;5043975;28;20131;-85
2024/01/28 05:29:28;;;;;;;36.72;16.73;;;-0.50;99.90;;;;;;5022366;28;20127;-82
2024/01/28 05:31:54;;;;;;;33.95;16.08;;;-0.60;99.90;;;;;;5026881;28;20118;-85
2024/01/28 05:34:20;;;;;;;43.15;19.17;;;-0.10;99.90;;;;;;5014326;28;20041;-84
2024/01/28 05:36:49;;;;;;;33.83;17.55;;;-0.40;99.90;;;;;;5019109;28;20083;-82
2024/01/28 05:39:16;;;;;;;33.95;16.58;;;-0.50;99.90;;;;;;5031364;28;20110;-83
2024/01/28 05:41:43;;;;;;;33.85;15.95;;;-0.50;99.90;;;;;;5043394;28;20131;-83
2024/01/28 05:44:09;;;;;;;30.33;16.00;;;-0.30;99.90;;;;;;5023819;28;20077;-84
2024/01/28 05:46:35;;;;;;;41.28;16.63;;;0.10;99.90;;;;;;5025188;28;20120;-83
2024/01/28 05:49:01;;;;;;;33.38;17.15;;;0.30;99.90;;;;;;5039817;28;20691;-82
2024/01/28 05:51:27;;;;;;;33.17;15.82;;;-0.60;99.90;;;;;;5040997;28;20041;-81
2024/01/28 05:53:56;;;;;;;35.70;17.50;;;-0.70;99.90;;;;;;5049763;28;20036;-85
2024/01/28 05:56:22;;;;;;;37.80;17.85;;;0.30;99.90;;;;;;5031052;28;20570;-84
2024/01/28 05:58:51;;;;;;;36.50;16.90;;;0.60;99.90;;;;;;5034051;28;20048;-85
2024/01/28 06:01:17;;;;;;;36.83;16.17;;;-0.50;99.90;;;;;;5026283;28;20045;-84
2024/01/28 06:03:42;;;;;;;37.13;17.08;;;-0.60;99.90;;;;;;5053505;28;20053;-84
2024/01/28 06:06:08;;;;;;;34.47;16.40;;;-0.20;99.90;;;;;;5042086;28;20079;-84
2024/01/28 06:08:34;;;;;;;37.38;16.70;;;-0.70;99.90;;;;;;5042730;28;20152;-85
2024/01/28 06:11:00;;;;;;;36.50;17.35;;;-0.40;99.90;;;;;;5025414;28;20048;-84
2024/01/28 06:13:26;;;;;;;33.22;17.35;;;-0.70;99.90;;;;;;5044007;28;20049;-83
2024/01/28 06:15:52;;;;;;;35.25;16.83;;;-0.60;99.90;;;;;;5044558;28;20449;-81
2024/01/28 06:18:19;;;;;;;40.55;18.67;;;-0.50;99.90;;;;;;5045201;28;20045;-82
2024/01/28 06:20:47;;;;;;;33.75;16.77;;;-0.40;99.90;;;;;;5025965;28;20053;-83
2024/01/28 06:23:14;;;;;;;30.80;16.38;;;0.90;99.90;;;;;;5043518;28;20052;-82
2024/01/28 06:25:40;;;;;;;35.65;17.30;;;-0.70;99.90;;;;;;5026166;28;20041;-84
2024/01/28 06:28:05;;;;;;;32.80;17.40;;;-0.50;99.90;;;;;;5026055;28;20429;-82
2024/01/28 06:30:35;;;;;;;30.67;15.50;;;-0.80;99.90;;;;;;5049584;28;20067;-84
2024/01/28 06:33:02;;;;;;;35.25;15.27;;;-0.50;99.90;;;;;;5028168;28;20399;-82
2024/01/28 06:35:29;;;;;;;33.05;15.48;;;-2.10;99.90;;;;;;5025377;28;20966;-83
2024/01/28 06:37:57;;;;;;;39.03;17.80;;;-0.60;99.90;;;;;;5025543;28;20494;-82
2024/01/28 06:40:23;;;;;;;36.20;16.30;;;-0.80;99.90;;;;;;5029345;28;20090;-83
2024/01/28 06:42:49;;;;;;;33.83;17.02;;;-0.70;99.90;;;;;;5026959;28;20045;-84
2024/01/28 06:45:15;;;;;;;32.95;16.73;;;-0.60;99.90;;;;;;5047365;28;20520;-81
2024/01/28 06:47:42;;;;;;;38.47;16.27;;;-0.60;99.90;;;;;;5041507;28;20174;-83
2024/01/28 06:50:08;;;;;;;38.95;20.15;;;-0.10;99.90;;;;;;5032471;28;20075;-84
2024/01/28 06:52:34;;;;;;;40.08;18.48;;;-2.10;99.90;;;;;;5030976;28;20048;-83
2024/01/28 06:54:59;;;;;;;35.65;18.83;;;-0.30;99.90;;;;;;5032938;28;20043;-83
2024/01/28 06:57:25;;;;;;;41.90;19.60;;;-1.20;99.90;;;;;;5036435;28;20041;-84
2024/01/28 06:59:51;;;;;;;33.88;19.88;;;-0.30;99.90;;;;;;5023890;28;20071;-83
2024/01/28 07:02:17;;;;;;;29.05;19.15;;;-0.80;99.90;;;;;;5024104;28;20118;-83
2024/01/28 07:04:43;;;;;;;37.85;19.35;;;-0.10;99.90;;;;;;5024891;28;20044;-84
2024/01/28 07:07:08;;;;;;;36.70;18.88;;;1.10;99.90;;;;;;5032992;28;20076;-84
2024/01/28 07:09:34;;;;;;;43.28;20.63;;;-0.80;99.90;;;;;;5023554;28;20045;-83
2024/01/28 07:12:00;;;;;;;45.85;19.50;;;-1.00;99.90;;;;;;5030472;28;20049;-84
2024/01/28 07:14:26;;;;;;;42.70;21.25;;;0.50;99.90;;;;;;5046752;28;20405;-86
2024/01/28 07:16:54;;;;;;;41.65;20.17;;;-0.90;99.90;;;;;;5042359;28;20076;-82
2024/01/28 07:19:20;;;;;;;48.25;21.20;;;-0.50;99.90;;;;;;5025348;28;20048;-81
2024/01/28 07:21:47;;;;;;;35.20;18.98;;;-1.00;99.90;;;;;;5029918;28;20511;-82
2024/01/28 07:24:13;;;;;;;41.00;18.77;;;-0.50;99.90;;;;;;5036845;28;20041;-81
2024/01/28 07:26:39;;;;;;;35.60;19.30;;;-1.20;99.90;;;;;;5021692;28;20056;-84
2024/01/28 07:29:05;;;;;;;36.97;17.95;;;-1.00;99.90;;;;;;5024509;28;20088;-85
2024/01/28 07:31:30;;;;;;;29.85;16.60;;;-0.80;99.90;;;;;;5022937;28;20421;-85
2024/01/28 07:33:57;;;;;;;39.63;18.35;;;0.90;99.90;;;;;;5044049;28;20040;-85
2024/01/28 07:36:23;;;;;;;38.63;17.75;;;-0.90;99.90;;;;;;5021528;28;20048;-84
2024/01/28 07:38:49;;;;;;;31.90;16.85;;;-0.40;99.90;;;;;;5040635;28;20036;-86
2024/01/28 07:41:15;;;;;;;38.20;18.67;;;-0.40;99.90;;;;;;5044026;28;20045;-83
2024/01/28 07:43:41;;;;;;;36.00;17.88;;;-0.70;99.90;;;;;;5031353;28;20097;-83
2024/01/28 07:46:08;;;;;;;30.17;15.23;;;-0.80;99.90;;;;;;5045203;28;20712;-82
2024/01/28 07:48:34;;;;;;;33.72;16.45;;;-0.80;99.90;;;;;;5031771;28;20049;-82
2024/01/28 07:51:00;;;;;;;31.48;16.35;;;0.90;99.90;;;;;;5029982;28;20037;-80
2024/01/28 07:53:26;;;;;;;31.67;16.90;;;-0.80;99.90;;;;;;5047672;28;20055;-83
2024/01/28 07:55:52;;;;;;;32.58;15.52;;;-0.90;99.90;;;;;;5041924;28;20045;-82
2024/01/28 07:58:18;;;;;;;38.88;16.80;;;-0.20;99.90;;;;;;5024313;28;20494;-82
2024/01/28 08:00:44;;;;;;;31.80;15.35;;;0.00;99.90;;;;;;5040333;28;20056;-83
2024/01/28 08:03:09;;;;;;;27.60;13.80;;;-0.80;99.90;;;;;;5042519;28;20048;-83
2024/01/28 08:05:35;;;;;;;28.17;14.43;;;-0.30;99.90;;;;;;5041222;28;20033;-83
2024/01/28 08:08:01;;;;;;;25.35;13.20;;;0.10;99.90;;;;;;5042016;28;20044;-83
2024/01/28 08:10:27;;;;;;;25.58;13.98;;;-0.20;99.90;;;;;;5024886;28;20033;-83
2024/01/28 08:12:53;;;;;;;25.98;12.27;;;-0.80;99.90;;;;;;5055204;28;20453;-84
2024/01/28 08:15:22;;;;;;;23.35;13.65;;;-0.50;99.90;;;;;;5026445;28;20494;-82
2024/01/28 08:17:49;;;;;;;34.92;15.90;;;-0.40;99.90;;;;;;5031559;28;20051;-83
2024/01/28 08:20:16;;;;;;;22.38;11.52;;;1.30;99.90;;;;;;5023131;28;20052;-82
2024/01/28 08:22:43;;;;;;;29.80;14.27;;;-0.20;99.90;;;;;;5045535;28;20049;-85
2024/01/28 08:25:11;;;;;;;18.88;11.15;;;0.10;99.90;;;;;;5040644;28;20076;-84
2024/01/28 08:27:37;;;;;;;22.67;10.73;;;-0.20;99.90;;;;;;5041904;28;20382;-85
2024/01/28 08:30:06;;;;;;;25.27;10.60;;;-0.50;99.90;;;;;;5038877;28;20049;-83
2024/01/28 08:32:32;;;;;;;19.63;9.93;;;0.10;99.90;;;;;;5026121;28;20603;-84
2024/01/28 08:34:58;;;;;;;21.05;8.70;;;0.10;99.90;;;;;;5041078;28;20044;-82
2024/01/28 08:37:23;;;;;;;21.63;10.93;;;0.10;99.90;;;;;;5025982;28;20040;-83
2024/01/28 08:39:49;;;;;;;22.98;9.00;;;0.20;99.90;;;;;;5021320;28;20104;-85
2024/01/28 08:42:16;;;;;;;22.42;8.57;;;0.10;99.90;;;;;;5022195;28;20053;-83
2024/01/28 08:44:42;;;;;;;26.20;8.13;;;0.20;99.90;;;;;;5022318;28;20045;-84
2024/01/28 08:47:09;;;;;;;17.00;8.50;;;0.20;99.90;;;;;;5038656;28;20575;-84
2024/01/28 08:49:35;;;;;;;20.20;7.20;;;0.30;99.90;;;;;;5038940;28;20103;-85
2024/01/28 08:52:01;;;;;;;27.70;8.38;;;0.30;99.90;;;;;;5023045;28;20123;-84
2024/01/28 08:54:27;;;;;;;16.02;7.05;;;0.40;99.90;;;;;;5041282;28;20055;-82
2024/01/28 08:56:53;;;;;;;13.65;6.88;;;0.30;99.90;;;;;;5023538;28;20127;-83
2024/01/28 08:59:19;;;;;;;17.85;7.43;;;1.10;99.90;;;;;;5042083;28;20056;-84
2024/01/28 09:01:47;;;;;;;13.85;6.32;;;0.40;99.90;;;;;;5023880;28;20051;-83
2024/01/28 09:04:13;;;;;;;19.00;7.68;;;0.50;99.90;;;;;;5023276;28;20123;-85
2024/01/28 09:06:39;;;;;;;14.02;6.03;;;0.50;99.90;;;;;;5021959;28;20064;-82
2024/01/28 09:09:08;;;;;;;13.38;4.72;;;0.50;99.90;;;;;;5020739;28;20653;-82
2024/01/28 09:11:35;;;;;;;13.98;4.97;;;0.70;99.90;;;;;;5037779;28;20044;-81
2024/01/28 09:14:01;;;;;;;10.95;4.30;;;1.20;99.90;;;;;;5021586;28;20041;-85
2024/01/28 09:16:28;;;;;;;14.18;4.70;;;0.90;99.90;;;;;;5037812;28;20041;-84
2024/01/28 09:18:54;;;;;;;12.52;6.25;;;1.30;99.90;;;;;;5038596;28;20577;-82
2024/01/28 09:21:19;;;;;;;13.25;6.22;;;1.10;99.90;;;;;;5015896;28;20047;-77
2024/01/28 09:23:45;;;;;;;13.63;5.10;;;1.00;99.90;;;;;;5037731;28;20644;-84
2024/01/28 09:26:11;;;;;;;11.88;4.57;;;1.40;99.90;;;;;;5014390;28;20048;-82
2024/01/28 09:28:37;;;;;;;10.07;5.03;;;1.30;99.90;;;;;;5023229;28;20103;-83
2024/01/28 09:31:07;;;;;;;16.10;6.05;;;1.10;99.90;;;;;;5022609;28;20045;-82
2024/01/28 09:33:33;;;;;;;14.55;4.65;;;1.20;99.90;;;;;;5023926;28;20151;-83
2024/01/28 09:35:59;;;;;;;13.52;5.07;;;1.50;99.90;;;;;;5046419;28;20051;-81
2024/01/28 09:38:25;;;;;;;13.93;5.15;;;1.40;99.90;;;;;;5019889;28;20036;-85
2024/01/28 09:40:52;;;;;;;10.43;3.80;;;1.60;99.90;;;;;;5045086;28;20671;-85
2024/01/28 09:43:18;;;;;;;12.35;3.88;;;1.20;99.90;;;;;;5022977;28;20771;-83
2024/01/28 09:45:44;;;;;;;9.80;4.78;;;1.80;99.90;;;;;;5044289;28;20066;-84
2024/01/28 09:48:12;;;;;;;8.93;4.07;;;1.90;99.90;;;;;;5024348;28;20183;-85
2024/01/28 09:50:39;;;;;;;8.35;3.40;;;2.00;99.90;;;;;;5023888;28;20037;-82
2024/01/28 09:53:06;;;;;;;13.27;3.55;;;2.40;99.90;;;;;;5034301;28;20080;-84
2024/01/28 09:55:32;;;;;;;8.40;3.58;;;2.70;99.90;;;;;;5043116;28;20096;-84
2024/01/28 09:57:58;;;;;;;9.70;3.65;;;2.60;99.90;;;;;;5024469;28;20474;-84
2024/01/28 10:00:24;;;;;;;10.65;4.10;;;3.00;99.90;;;;;;5043945;28;20049;-83
2024/01/28 10:02:51;;;;;;;9.48;3.38;;;2.70;99.90;;;;;;5046132;28;20056;-81
2024/01/28 10:05:17;;;;;;;11.88;4.15;;;2.80;99.90;;;;;;5024150;28;20037;-85
2024/01/28 10:07:44;;;;;;;7.20;3.17;;;2.70;99.90;;;;;;5031452;28;20041;-82
2024/01/28 10:10:13;;;;;;;8.23;3.25;;;3.10;99.90;;;;;;5032959;28;20045;-82
2024/01/28 10:12:39;;;;;;;10.10;3.13;;;3.70;99.90;;;;;;5038850;28;20413;-82
2024/01/28 10:15:20;;;;;;;10.90;3.10;;;3.30;99.90;;;;;;5040045;28;20049;-82
2024/01/28 10:17:48;;;;;;;5.32;2.53;;;3.60;99.90;;;;;;5022189;28;20040;-81
2024/01/28 10:20:25;;;;;;;9.52;3.45;;;4.60;99.90;;;;;;5022339;28;20049;-83
2024/01/28 10:22:53;;;;;;;7.57;2.75;;;3.90;99.90;;;;;;5037838;28;20885;-82
2024/01/28 10:25:22;;;;;;;7.07;2.92;;;4.10;99.90;;;;;;5022923;28;20044;-86
2024/01/28 10:27:49;;;;;;;8.25;2.80;;;4.10;99.90;;;;;;5031574;28;20709;-85
2024/01/28 10:30:16;;;;;;;10.52;2.95;;;4.40;99.90;;;;;;5028894;28;20049;-83
2024/01/28 10:32:43;;;;;;;12.95;4.28;;;4.40;99.90;;;;;;5033519;28;20513;-85
2024/01/28 10:35:10;;;;;;;8.07;3.75;;;4.70;99.90;;;;;;5041743;28;20052;-79
2024/01/28 10:37:36;;;;;;;8.60;2.40;;;4.80;99.90;;;;;;5035518;28;20044;-82
2024/01/28 10:40:13;;;;;;;9.27;2.17;;;4.80;99.90;;;;;;5025252;28;20126;-80
2024/01/28 10:42:41;;;;;;;7.28;2.30;;;5.10;99.90;;;;;;5036534;28;20040;-80
2024/01/28 10:45:11;;;;;;;11.02;2.50;;;5.40;99.90;;;;;;5025197;28;20185;-85
2024/01/28 10:47:44;;;;;;;8.50;3.20;;;5.50;99.90;;;;;;5022891;28;20041;-83
2024/01/28 10:50:12;;;;;;;5.88;2.55;;;5.40;99.90;;;;;;5043216;28;20425;-83
2024/01/28 10:52:38;;;;;;;8.57;2.22;;;5.30;99.90;;;;;;5025483;28;20048;-83
2024/01/28 10:55:05;;;;;;;6.85;2.67;;;5.70;99.90;;;;;;5026095;28;20040;-84
2024/01/28 10:57:32;;;;;;;9.80;3.38;;;4.80;99.90;;;;;;5042220;28;20049;-86
2024/01/28 11:00:05;;;;;;;7.45;2.75;;;5.60;99.90;;;;;;5027249;28;20045;-83
2024/01/28 11:02:34;;;;;;;10.73;3.13;;;5.60;99.90;;;;;;5027012;28;20053;-84
2024/01/28 11:05:02;;;;;;;7.32;2.58;;;5.60;99.90;;;;;;5035065;28;20046;-86
2024/01/28 11:07:28;;;;;;;9.10;2.78;;;5.20;99.90;;;;;;5041418;28;20509;-85
2024/01/28 11:09:54;;;;;;;5.60;2.45;;;5.10;99.90;;;;;;5035807;28;20055;-83
2024/01/28 11:12:21;;;;;;;6.85;1.90;;;5.40;99.90;;;;;;5024411;28;20037;-86
2024/01/28 11:14:47;;;;;;;9.05;2.20;;;4.80;99.90;;;;;;5040987;28;20063;-85
2024/01/28 11:17:13;;;;;;;5.43;2.05;;;5.10;99.90;;;;;;5024928;28;20106;-86
2024/01/28 11:19:39;;;;;;;7.10;2.55;;;4.50;99.90;;;;;;5032347;28;20049;-85
2024/01/28 11:22:13;;;;;;;6.88;2.10;;;4.50;99.90;;;;;;5029802;28;20480;-83
2024/01/28 11:24:51;;;;;;;8.55;2.88;;;4.60;99.90;;;;;;5026214;28;20103;-88
2024/01/28 11:27:21;;;;;;;7.30;2.92;;;4.60;99.90;;;;;;5044886;28;20859;-82
2024/01/28 11:29:47;;;;;;;10.07;2.38;;;4.50;99.90;;;;;;5042585;28;20041;-87
2024/01/28 11:32:14;;;;;;;9.32;2.75;;;4.50;99.90;;;;;;5045795;28;20477;-82
2024/01/28 11:34:45;;;;;;;9.38;2.67;;;4.60;99.90;;;;;;5020295;28;20044;-85
2024/01/28 11:37:15;;;;;;;7.25;2.40;;;4.70;99.90;;;;;;5024351;28;20130;-86
2024/01/28 11:39:48;;;;;;;7.78;2.20;;;4.60;99.90;;;;;;5039094;28;20052;-82
2024/01/28 11:42:14;;;;;;;10.93;3.00;;;4.30;99.90;;;;;;5023979;28;20110;-82
2024/01/28 11:44:43;;;;;;;6.25;2.10;;;4.50;99.90;;;;;;5043842;28;20124;-84
2024/01/28 11:47:13;;;;;;;7.88;2.17;;;4.60;99.90;;;;;;5024948;28;20062;-83
2024/01/28 11:49:39;;;;;;;7.43;1.95;;;4.70;99.90;;;;;;5040238;28;20047;-80
2024/01/28 11:52:07;;;;;;;6.32;2.20;;;4.70;99.90;;;;;;5027513;28;20053;-86
2024/01/28 11:54:33;;;;;;;10.50;1.80;;;4.70;99.90;;;;;;5046942;28;20484;-81
2024/01/28 11:57:00;;;;;;;9.10;1.63;;;5.00;99.90;;;;;;5038534;28;20048;-81
2024/01/28 11:59:26;;;;;;;16.10;3.55;;;4.70;99.90;;;;;;5033083;28;20156;-84
2024/01/28 12:01:52;;;;;;;6.20;2.42;;;4.40;99.90;;;;;;5029703;28;20155;-83
2024/01/28 12:04:22;;;;;;;4.88;1.40;;;4.80;99.90;;;;;;5037392;28;20106;-83
2024/01/28 12:07:15;;;;;;;5.13;2.08;;;5.90;99.90;;;;;;5017734;28;20231;-85
2024/01/28 12:09:56;;;;;;;4.55;2.25;;;4.90;99.90;;;;;;4987756;28;20116;-84
2024/01/28 12:12:55;;;;;;;7.82;2.17;;;4.90;99.90;;;;;;4970906;28;20049;-79
2024/01/28 12:15:21;;;;;;;6.93;1.73;;;5.00;99.90;;;;;;4998037;28;20057;-81
2024/01/28 12:17:51;;;;;;;8.13;2.10;;;5.00;99.90;;;;;;4970735;28;20756;-82
2024/01/28 12:20:28;;;;;;;9.45;2.30;;;5.00;99.90;;;;;;5007019;28;20051;-78
2024/01/28 12:23:05;;;;;;;7.93;1.55;;;5.10;99.90;;;;;;4995169;28;20033;-83
2024/01/28 12:25:34;;;;;;;5.68;2.35;;;5.00;99.90;;;;;;4980187;28;20617;-81
2024/01/28 12:28:48;;;;;;;;;;;;;;;;;;;;;
2024/01/28 12:32:07;;;;;;;7.55;2.13;;;5.20;99.90;;;;;;4991052;28;20049;-82
2024/01/28 12:34:35;;;;;;;6.30;1.20;;;5.20;99.90;;;;;;4977570;28;20049;-84
2024/01/28 12:37:02;;;;;;;5.60;1.52;;;5.30;99.90;;;;;;4999266;28;20048;-82